Time;durP1;ratioP1;P1;durP2;ratioP2;P2;SDS_P1;SDS_P2;PMS_P1;PMS_P2;Temp;Humidity;BMP_temperature;BMP_pressure;BME280_temperature;BME280_humidity;BME280_pressure;Samples;Min_cycle;Max_cycle;Signal;HPM_P1;HPM_P2
2022/12/25 00:02:10;;;;;;;11.93;6.38;;;;;;;;;;4964800;28;20057;-57
2022/12/25 00:04:36;;;;;;;12.68;7.45;;;;;;;;;;4971279;28;20405;-54
2022/12/25 00:07:02;;;;;;;16.88;7.18;;;;;;;;;;4967129;28;20030;-58
2022/12/25 00:09:31;;;;;;;20.95;7.38;;;;;;;;;;4966455;28;20033;-57
2022/12/25 00:11:57;;;;;;;15.18;7.45;;;;;;;;;;4975598;28;20035;-58
2022/12/25 00:14:22;;;;;;;15.95;7.53;;;;;;;;;;4966780;28;20425;-56
2022/12/25 00:16:47;;;;;;;17.08;7.38;;;;;;;;;;4972337;28;20088;-59
2022/12/25 00:19:13;;;;;;;19.50;8.15;;;;;;;;;;4965163;28;20110;-57
2022/12/25 00:21:38;;;;;;;14.32;8.18;;;;;;;;;;4964896;28;20478;-57
2022/12/25 00:24:04;;;;;;;13.38;8.00;;;;;;;;;;4973950;28;20034;-58
2022/12/25 00:26:29;;;;;;;17.83;9.02;;;;;;;;;;4969232;28;20022;-57
2022/12/25 00:28:55;;;;;;;23.83;8.50;;;;;;;;;;4968419;28;20402;-58
2022/12/25 00:31:21;;;;;;;15.77;7.30;;;;;;;;;;4967008;28;20061;-57
2022/12/25 00:33:47;;;;;;;14.82;7.30;;;;;;;;;;4964804;28;20436;-54
2022/12/25 00:36:13;;;;;;;17.73;8.68;;;;;;;;;;4965745;28;20544;-56
2022/12/25 00:38:39;;;;;;;12.10;7.88;;;;;;;;;;4967449;28;20031;-57
2022/12/25 00:41:08;;;;;;;16.27;8.65;;;;;;;;;;4964008;28;20054;-59
2022/12/25 00:43:34;;;;;;;14.95;8.18;;;;;;;;;;4974458;28;20113;-55
2022/12/25 00:46:01;;;;;;;13.70;8.05;;;;;;;;;;4966292;28;20035;-56
2022/12/25 00:48:27;;;;;;;13.02;8.07;;;;;;;;;;4969925;28;20027;-55
2022/12/25 00:50:53;;;;;;;16.10;8.80;;;;;;;;;;4964116;28;20073;-56
2022/12/25 00:53:19;;;;;;;20.02;7.50;;;;;;;;;;4965870;28;20039;-54
2022/12/25 00:55:49;;;;;;;18.27;8.00;;;;;;;;;;4968365;28;20018;-56
2022/12/25 00:58:14;;;;;;;17.88;8.38;;;;;;;;;;4965277;28;20027;-57
2022/12/25 01:00:39;;;;;;;12.98;7.20;;;;;;;;;;4969643;28;20066;-58
2022/12/25 01:03:05;;;;;;;16.08;8.57;;;;;;;;;;4961876;28;20201;-57
2022/12/25 01:05:30;;;;;;;15.43;7.70;;;;;;;;;;4962916;28;20034;-58
2022/12/25 01:07:55;;;;;;;15.68;7.90;;;;;;;;;;4972832;28;20154;-57
2022/12/25 01:10:21;;;;;;;12.73;7.45;;;;;;;;;;4964442;28;20137;-58
2022/12/25 01:12:46;;;;;;;21.40;8.23;;;;;;;;;;4967805;28;20030;-58
2022/12/25 01:15:12;;;;;;;11.68;6.65;;;;;;;;;;4965205;28;20037;-58
2022/12/25 01:17:37;;;;;;;11.80;7.00;;;;;;;;;;4967574;28;21751;-56
2022/12/25 01:20:03;;;;;;;15.52;7.25;;;;;;;;;;4968991;28;20037;-57
2022/12/25 01:22:28;;;;;;;16.58;7.90;;;;;;;;;;4978714;28;20710;-56
2022/12/25 01:24:53;;;;;;;13.80;6.88;;;;;;;;;;4972338;28;20030;-57
2022/12/25 01:27:19;;;;;;;12.48;6.47;;;;;;;;;;4964394;28;20038;-55
2022/12/25 01:29:44;;;;;;;13.15;7.25;;;;;;;;;;4967568;28;20263;-57
2022/12/25 01:32:10;;;;;;;14.20;7.85;;;;;;;;;;4966910;28;20474;-58
2022/12/25 01:34:38;;;;;;;13.90;7.07;;;;;;;;;;4965019;28;20065;-55
2022/12/25 01:37:03;;;;;;;22.98;8.23;;;;;;;;;;4971542;28;20030;-54
2022/12/25 01:39:29;;;;;;;14.63;7.10;;;;;;;;;;4969081;28;20023;-54
2022/12/25 01:41:54;;;;;;;15.52;7.32;;;;;;;;;;4965361;28;20567;-58
2022/12/25 01:44:34;;;;;;;13.98;7.03;;;;;;;;;;4975616;28;20521;-56
2022/12/25 01:47:00;;;;;;;14.45;6.93;;;;;;;;;;4971163;28;20034;-59
2022/12/25 01:49:25;;;;;;;12.68;6.78;;;;;;;;;;4973876;28;20033;-55
2022/12/25 01:51:51;;;;;;;15.82;7.22;;;;;;;;;;4968478;28;20335;-58
2022/12/25 01:54:18;;;;;;;12.13;6.50;;;;;;;;;;4975403;28;20066;-58
2022/12/25 01:56:43;;;;;;;;;;;;;;;;;;4973062;28;20035;-57
2022/12/25 01:59:09;;;;;;;11.88;5.88;;;;;;;;;;4970450;28;19920;-57
2022/12/25 02:01:34;;;;;;;14.57;6.15;;;;;;;;;;4972438;28;20082;-58
2022/12/25 02:04:05;;;;;;;12.70;5.63;;;;;;;;;;4968535;28;20035;-57
2022/12/25 02:06:32;;;;;;;16.58;6.18;;;;;;;;;;4969526;28;20041;-57
2022/12/25 02:08:58;;;;;;;11.27;6.23;;;;;;;;;;4972932;28;20022;-57
2022/12/25 02:14:07;;;;;;;14.98;6.30;;;;;;;;;;4969092;28;20129;-58
2022/12/25 02:16:34;;;;;;;13.27;6.30;;;;;;;;;;4976011;28;20113;-56
2022/12/25 02:19:08;;;;;;;13.90;6.50;;;;;;;;;;4968011;28;20492;-57
2022/12/25 02:21:54;;;;;;;15.23;7.13;;;;;;;;;;4973209;28;20213;-56
2022/12/25 02:24:26;;;;;;;12.90;6.78;;;;;;;;;;4969744;28;20043;-58
2022/12/25 02:26:59;;;;;;;13.95;7.10;;;;;;;;;;4969777;28;20027;-58
2022/12/25 02:29:32;;;;;;;13.23;6.80;;;;;;;;;;4978925;28;20042;-57
2022/12/25 02:32:01;;;;;;;12.07;6.28;;;;;;;;;;4968183;28;20030;-58
2022/12/25 02:34:36;;;;;;;15.52;6.53;;;;;;;;;;4970513;28;20105;-55
2022/12/25 02:37:06;;;;;;;10.70;5.90;;;;;;;;;;4969804;28;20470;-58
2022/12/25 03:06:41;;;;;;;17.83;7.40;;;;;;;;;;4967073;28;20135;-56
2022/12/25 03:07:27;;;;;;;12.40;6.22;;;;;;;;;;4967887;28;20059;-57
2022/12/25 03:12:44;;;;;;;15.25;6.78;;;;;;;;;;4968972;28;20519;-56
2022/12/25 03:17:55;;;;;;;9.73;5.90;;;;;;;;;;4971024;28;20038;-58
2022/12/25 03:28:34;;;;;;;13.20;6.10;;;;;;;;;;4968078;28;20034;-56
2022/12/25 03:31:12;;;;;;;9.75;5.45;;;;;;;;;;4966002;28;20038;-58
2022/12/25 03:33:37;;;;;;;;;;;;;;;;;;4972173;28;20062;-55
2022/12/25 03:36:08;;;;;;;9.77;5.57;;;;;;;;;;4984659;28;20021;-57
2022/12/25 04:36:38;;;;;;;10.23;4.32;;;;;;;;;;4967555;28;20035;-56
2022/12/25 04:39:04;;;;;;;9.77;4.10;;;;;;;;;;4964643;28;20112;-59
2022/12/25 04:41:29;;;;;;;8.52;3.38;;;;;;;;;;4971291;28;20042;-58
2022/12/25 04:43:54;;;;;;;9.85;3.50;;;;;;;;;;4966357;28;20105;-59
2022/12/25 04:46:20;;;;;;;9.00;2.63;;;;;;;;;;4970045;28;20120;-57
2022/12/25 04:48:45;;;;;;;7.63;3.03;;;;;;;;;;4965527;28;20544;-57
2022/12/25 04:51:11;;;;;;;5.03;2.65;;;;;;;;;;4971376;28;20342;-57
2022/12/25 04:53:37;;;;;;;3.85;2.60;;;;;;;;;;4975437;28;20470;-55
2022/12/25 04:56:02;;;;;;;5.38;2.42;;;;;;;;;;4967552;28;20054;-56
2022/12/25 04:58:28;;;;;;;5.03;2.50;;;;;;;;;;4973948;28;20041;-54
2022/12/25 05:00:53;;;;;;;5.85;2.33;;;;;;;;;;4974458;28;20321;-56
2022/12/25 05:03:18;;;;;;;5.72;2.47;;;;;;;;;;4965878;28;20366;-57
2022/12/25 05:05:46;;;;;;;6.70;2.30;;;;;;;;;;4967645;28;20035;-55
2022/12/25 05:08:11;;;;;;;4.63;2.40;;;;;;;;;;4967186;28;20065;-57
2022/12/25 05:10:38;;;;;;;7.25;2.67;;;;;;;;;;4969136;28;20031;-57
2022/12/25 05:13:03;;;;;;;5.20;2.33;;;;;;;;;;4966880;28;20069;-56
2022/12/25 05:15:29;;;;;;;4.70;2.88;;;;;;;;;;4968627;28;20141;-57
2022/12/25 05:17:54;;;;;;;6.20;3.15;;;;;;;;;;4972552;28;20409;-55
2022/12/25 05:20:19;;;;;;;5.47;3.08;;;;;;;;;;4969275;28;20030;-57
2022/12/25 05:22:45;;;;;;;6.88;2.90;;;;;;;;;;4970573;28;20105;-56
2022/12/25 05:25:10;;;;;;;6.32;2.78;;;;;;;;;;4970209;28;20042;-56
2022/12/25 05:27:35;;;;;;;5.97;3.13;;;;;;;;;;4968454;28;20033;-57
2022/12/25 05:30:01;;;;;;;4.90;2.78;;;;;;;;;;4974397;28;20081;-56
2022/12/25 05:32:26;;;;;;;4.60;3.10;;;;;;;;;;4967320;28;20038;-53
2022/12/25 05:34:52;;;;;;;6.65;3.10;;;;;;;;;;4974516;28;20034;-59
2022/12/25 05:37:17;;;;;;;8.00;3.20;;;;;;;;;;4967516;28;20368;-57
2022/12/25 05:39:42;;;;;;;9.80;3.35;;;;;;;;;;4968045;28;20038;-57
2022/12/25 05:42:08;;;;;;;7.40;3.63;;;;;;;;;;4970951;28;20053;-57
2022/12/25 05:44:33;;;;;;;6.68;3.65;;;;;;;;;;4969620;28;20072;-57
2022/12/25 05:46:58;;;;;;;5.63;3.13;;;;;;;;;;4975995;28;20080;-57
2022/12/25 05:49:24;;;;;;;9.50;3.10;;;;;;;;;;4969403;28;20037;-57
2022/12/25 05:51:49;;;;;;;9.23;3.45;;;;;;;;;;4967892;28;20022;-57
2022/12/25 05:54:15;;;;;;;6.65;3.75;;;;;;;;;;4971855;28;20030;-57
2022/12/25 05:56:40;;;;;;;6.25;3.70;;;;;;;;;;4970054;28;20034;-57
2022/12/25 05:59:06;;;;;;;6.50;4.00;;;;;;;;;;4972391;28;20084;-56
2022/12/25 06:01:31;;;;;;;7.45;3.92;;;;;;;;;;4969175;28;20041;-57
2022/12/25 06:03:56;;;;;;;8.63;3.90;;;;;;;;;;4970020;28;20038;-58
2022/12/25 06:06:22;;;;;;;7.95;3.38;;;;;;;;;;4973663;28;20700;-57
2022/12/25 06:08:47;;;;;;;6.40;3.63;;;;;;;;;;4967935;28;20049;-54
2022/12/25 06:11:13;;;;;;;10.27;4.05;;;;;;;;;;4974659;28;20717;-57
2022/12/25 06:13:39;;;;;;;10.13;3.67;;;;;;;;;;4983876;28;20034;-57
2022/12/25 06:16:09;;;;;;;6.00;3.50;;;;;;;;;;4969481;28;20612;-57
2022/12/25 06:18:35;;;;;;;8.52;3.95;;;;;;;;;;4969456;28;20054;-57
2022/12/25 06:21:04;;;;;;;7.50;3.90;;;;;;;;;;4965968;28;20026;-55
2022/12/25 06:23:29;;;;;;;10.30;3.50;;;;;;;;;;4973078;28;20127;-57
2022/12/25 06:25:55;;;;;;;5.57;3.55;;;;;;;;;;4973276;28;20073;-55
2022/12/25 06:28:20;;;;;;;8.25;3.63;;;;;;;;;;4966499;28;20034;-56
2022/12/25 06:30:45;;;;;;;8.93;3.78;;;;;;;;;;4974700;28;20777;-55
2022/12/25 06:33:11;;;;;;;10.27;3.88;;;;;;;;;;4974863;28;20118;-56
2022/12/25 06:35:37;;;;;;;7.63;4.25;;;;;;;;;;4973056;28;20030;-56
2022/12/25 06:38:03;;;;;;;7.97;4.22;;;;;;;;;;4971785;28;20027;-56
2022/12/25 06:40:28;;;;;;;12.63;4.43;;;;;;;;;;4967224;28;20077;-57
2022/12/25 06:42:53;;;;;;;8.85;4.25;;;;;;;;;;4972968;28;20089;-55
2022/12/25 06:45:19;;;;;;;10.30;4.80;;;;;;;;;;4966065;28;20027;-57
2022/12/25 06:47:47;;;;;;;8.70;4.40;;;;;;;;;;4973248;28;20054;-55
2022/12/25 06:50:17;;;;;;;11.70;5.20;;;;;;;;;;4974237;28;20031;-57
2022/12/25 06:52:42;;;;;;;10.40;4.90;;;;;;;;;;4967733;28;20022;-55
2022/12/25 06:55:08;;;;;;;14.88;5.63;;;;;;;;;;4971879;28;20046;-55
2022/12/25 06:57:33;;;;;;;8.55;4.68;;;;;;;;;;4967296;28;20023;-55
2022/12/25 06:59:58;;;;;;;11.10;4.70;;;;;;;;;;4971252;28;20050;-58
2022/12/25 07:02:24;;;;;;;10.60;5.53;;;;;;;;;;4968835;28;20137;-55
2022/12/25 07:04:50;;;;;;;11.98;5.43;;;;;;;;;;4968837;28;20050;-57
2022/12/25 07:07:15;;;;;;;9.02;4.53;;;;;;;;;;4973924;28;20474;-57
2022/12/25 07:09:41;;;;;;;10.32;4.88;;;;;;;;;;4967245;28;20054;-54
2022/12/25 07:12:19;;;;;;;9.70;5.05;;;;;;;;;;4973163;28;20109;-54
2022/12/25 07:14:47;;;;;;;10.13;4.93;;;;;;;;;;4971944;28;20072;-56
2022/12/25 07:17:14;;;;;;;8.43;5.00;;;;;;;;;;4964491;28;20068;-56
2022/12/25 07:19:39;;;;;;;7.82;4.68;;;;;;;;;;4979451;28;20701;-57
2022/12/25 07:22:04;;;;;;;8.57;4.72;;;;;;;;;;4971743;28;20022;-56
2022/12/25 07:24:30;;;;;;;10.15;4.68;;;;;;;;;;4968941;28;20042;-56
2022/12/25 07:26:55;;;;;;;8.75;4.97;;;;;;;;;;4973179;28;20038;-55
2022/12/25 07:29:20;;;;;;;10.65;4.80;;;;;;;;;;4970928;28;20038;-55
2022/12/25 07:31:46;;;;;;;8.38;4.85;;;;;;;;;;4973084;28;20039;-55
2022/12/25 07:34:11;;;;;;;7.15;4.47;;;;;;;;;;4965012;28;20532;-53
2022/12/25 07:36:36;;;;;;;8.43;4.53;;;;;;;;;;4965874;28;20529;-54
2022/12/25 07:39:02;;;;;;;8.57;4.70;;;;;;;;;;4971158;28;20035;-55
2022/12/25 07:41:28;;;;;;;10.20;5.70;;;;;;;;;;4967168;28;20094;-56
2022/12/25 07:44:11;;;;;;;8.30;5.20;;;;;;;;;;4976045;28;20088;-56
2022/12/25 07:46:36;;;;;;;8.60;5.53;;;;;;;;;;4966560;28;20023;-57
2022/12/25 07:49:02;;;;;;;9.38;5.97;;;;;;;;;;4975700;28;20038;-55
2022/12/25 07:51:29;;;;;;;11.25;6.20;;;;;;;;;;4972697;28;20051;-57
2022/12/25 07:53:54;;;;;;;11.68;7.32;;;;;;;;;;4965291;28;20026;-56
2022/12/25 07:56:19;;;;;;;19.80;11.05;;;;;;;;;;4971421;28;20091;-56
2022/12/25 07:58:45;;;;;;;20.25;10.93;;;;;;;;;;4965086;28;20022;-56
2022/12/25 08:01:11;;;;;;;14.30;9.13;;;;;;;;;;4966535;28;20043;-57
2022/12/25 08:03:36;;;;;;;12.60;8.10;;;;;;;;;;4974788;28;20114;-56
2022/12/25 08:06:03;;;;;;;14.07;8.10;;;;;;;;;;4963550;28;20050;-55
2022/12/25 08:08:28;;;;;;;12.93;7.38;;;;;;;;;;4970969;28;20086;-57
2022/12/25 08:10:54;;;;;;;10.00;6.50;;;;;;;;;;4979885;28;20059;-54
2022/12/25 08:13:19;;;;;;;11.35;6.50;;;;;;;;;;4965920;28;20050;-55
2022/12/25 08:15:44;;;;;;;14.30;7.32;;;;;;;;;;4970947;28;20034;-55
2022/12/25 08:18:10;;;;;;;10.32;6.43;;;;;;;;;;4965726;28;20027;-57
2022/12/25 08:20:36;;;;;;;22.90;11.50;;;;;;;;;;4975908;28;20031;-56
2022/12/25 08:23:01;;;;;;;10.38;7.32;;;;;;;;;;4969664;28;20033;-57
2022/12/25 08:25:26;;;;;;;13.70;9.30;;;;;;;;;;4966976;28;20038;-57
2022/12/25 08:27:52;;;;;;;15.88;8.63;;;;;;;;;;4970201;28;20678;-57
2022/12/25 08:30:17;;;;;;;14.73;8.02;;;;;;;;;;4964495;28;20449;-57
2022/12/25 08:32:42;;;;;;;11.90;7.60;;;;;;;;;;4966934;28;20045;-56
2022/12/25 08:35:10;;;;;;;15.02;8.18;;;;;;;;;;4965734;28;20034;-57
2022/12/25 08:37:35;;;;;;;12.27;7.78;;;;;;;;;;4963709;28;20035;-58
2022/12/25 08:40:00;;;;;;;12.93;8.13;;;;;;;;;;4971112;28;20033;-57
2022/12/25 08:42:26;;;;;;;15.05;8.80;;;;;;;;;;4969838;28;20039;-57
2022/12/25 08:44:51;;;;;;;16.17;9.10;;;;;;;;;;4969673;28;20022;-57
2022/12/25 08:47:16;;;;;;;14.30;8.52;;;;;;;;;;4965821;28;20584;-55
2022/12/25 08:49:45;;;;;;;15.75;8.95;;;;;;;;;;4968880;28;20031;-56
2022/12/25 08:52:10;;;;;;;15.32;9.77;;;;;;;;;;4973851;28;20133;-55
2022/12/25 08:54:35;;;;;;;15.40;7.88;;;;;;;;;;4969198;28;20117;-56
2022/12/25 08:57:01;;;;;;;15.77;8.20;;;;;;;;;;4975004;28;20030;-56
2022/12/25 08:59:26;;;;;;;11.63;7.88;;;;;;;;;;4958782;28;20409;-56
2022/12/25 09:01:51;;;;;;;14.48;7.60;;;;;;;;;;4970524;28;20062;-56
2022/12/25 09:04:17;;;;;;;11.55;7.07;;;;;;;;;;4974768;28;20646;-57
2022/12/25 09:06:42;;;;;;;10.63;5.68;;;;;;;;;;4969037;28;20449;-56
2022/12/25 09:09:07;;;;;;;15.32;7.68;;;;;;;;;;4975784;28;20026;-55
2022/12/25 09:11:33;;;;;;;10.82;6.18;;;;;;;;;;4971777;28;20088;-56
2022/12/25 09:13:59;;;;;;;10.57;6.10;;;;;;;;;;4972132;28;20113;-57
2022/12/25 09:16:27;;;;;;;10.68;6.47;;;;;;;;;;4972529;28;20029;-56
2022/12/25 09:18:55;;;;;;;10.70;6.53;;;;;;;;;;4970302;28;20393;-57
2022/12/25 09:21:20;;;;;;;10.68;6.78;;;;;;;;;;4973251;28;20039;-58
2022/12/25 09:23:46;;;;;;;10.93;6.78;;;;;;;;;;4958873;28;20049;-56
2022/12/25 09:26:13;;;;;;;10.30;6.80;;;;;;;;;;4970401;28;20037;-52
2022/12/25 09:28:38;;;;;;;12.00;7.43;;;;;;;;;;4961718;28;20288;-55
2022/12/25 09:31:04;;;;;;;14.73;8.85;;;;;;;;;;4970748;28;20034;-57
2022/12/25 09:33:29;;;;;;;15.20;9.68;;;;;;;;;;4975376;28;20065;-57
2022/12/25 09:36:03;;;;;;;13.32;9.00;;;;;;;;;;4975364;28;20077;-61
2022/12/25 09:38:29;;;;;;;15.48;9.25;;;;;;;;;;4968421;28;20532;-57
2022/12/25 09:41:00;;;;;;;16.48;9.65;;;;;;;;;;4977325;28;20034;-56
2022/12/25 09:43:27;;;;;;;13.05;8.60;;;;;;;;;;4956271;28;20045;-55
2022/12/25 09:45:55;;;;;;;14.30;8.10;;;;;;;;;;4970929;28;20109;-56
2022/12/25 09:48:21;;;;;;;11.02;7.78;;;;;;;;;;4978848;28;20046;-56
2022/12/25 09:50:46;;;;;;;13.30;8.68;;;;;;;;;;4969898;28;20061;-57
2022/12/25 09:53:15;;;;;;;11.43;7.57;;;;;;;;;;4974798;28;20141;-54
2022/12/25 09:55:59;;;;;;;14.20;7.32;;;;;;;;;;4968238;28;20026;-56
2022/12/25 09:58:25;;;;;;;11.68;7.45;;;;;;;;;;4969196;28;20134;-58
2022/12/25 10:01:02;;;;;;;11.65;7.32;;;;;;;;;;4974091;28;20089;-58
2022/12/25 10:03:43;;;;;;;9.32;5.60;;;;;;;;;;4971121;28;20813;-57
2022/12/25 10:06:33;;;;;;;10.63;6.57;;;;;;;;;;4969002;28;20026;-57
2022/12/25 10:09:11;;;;;;;8.98;5.53;;;;;;;;;;4979376;28;20030;-56
2022/12/25 10:11:55;;;;;;;17.30;9.05;;;;;;;;;;4986346;28;20148;-55
2022/12/25 10:14:25;;;;;;;13.25;6.80;;;;;;;;;;4969010;28;20085;-57
2022/12/25 10:17:09;;;;;;;7.55;4.95;;;;;;;;;;4971652;28;20134;-56
2022/12/25 10:19:40;;;;;;;8.10;4.43;;;;;;;;;;4970783;28;20805;-55
2022/12/25 10:22:15;;;;;;;7.38;5.05;;;;;;;;;;4968287;28;20031;-57
2022/12/25 10:24:46;;;;;;;8.45;4.28;;;;;;;;;;4967004;28;20022;-57
2022/12/25 10:27:16;;;;;;;5.60;3.65;;;;;;;;;;4968785;28;20041;-58
2022/12/25 10:29:42;;;;;;;7.22;3.85;;;;;;;;;;4971848;28;20122;-57
2022/12/25 10:32:07;;;;;;;6.15;3.92;;;;;;;;;;4966421;28;20841;-57
2022/12/25 10:34:34;;;;;;;5.68;3.83;;;;;;;;;;4973164;28;20512;-57
2022/12/25 10:37:00;;;;;;;7.07;4.30;;;;;;;;;;4969293;28;20037;-57
2022/12/25 10:39:26;;;;;;;9.15;5.15;;;;;;;;;;4964638;28;20084;-57
2022/12/25 10:42:09;;;;;;;8.30;4.70;;;;;;;;;;4969597;28;20038;-58
2022/12/25 10:44:35;;;;;;;6.22;3.80;;;;;;;;;;4966735;28;20528;-56
2022/12/25 10:47:01;;;;;;;6.70;3.72;;;;;;;;;;4970598;28;20027;-58
2022/12/25 10:49:35;;;;;;;7.30;3.97;;;;;;;;;;4974010;28;20485;-58
2022/12/25 10:52:02;;;;;;;8.90;4.90;;;;;;;;;;4965533;28;20054;-57
2022/12/25 10:54:32;;;;;;;8.55;4.38;;;;;;;;;;4965293;28;20027;-57
2022/12/25 10:56:59;;;;;;;8.13;4.70;;;;;;;;;;4967813;28;20034;-53
2022/12/25 10:59:26;;;;;;;9.45;5.95;;;;;;;;;;4969388;28;20902;-55
2022/12/25 11:01:52;;;;;;;8.10;4.70;;;;;;;;;;4966250;28;20058;-57
2022/12/25 11:04:19;;;;;;;7.15;4.35;;;;;;;;;;4969958;28;20162;-57
2022/12/25 11:06:54;;;;;;;6.50;3.97;;;;;;;;;;4971972;28;20397;-56
2022/12/25 11:09:19;;;;;;;6.78;4.10;;;;;;;;;;4969315;28;20110;-56
2022/12/25 11:11:45;;;;;;;6.35;3.40;;;;;;;;;;4966597;28;20034;-57
2022/12/25 11:14:15;;;;;;;5.57;3.00;;;;;;;;;;4970399;28;20030;-58
2022/12/25 11:16:41;;;;;;;6.28;3.25;;;;;;;;;;4970341;28;20564;-57
2022/12/25 11:19:22;;;;;;;6.13;3.13;;;;;;;;;;4963854;28;20106;-56
2022/12/25 11:21:51;;;;;;;5.60;2.97;;;;;;;;;;4970073;28;20481;-54
2022/12/25 11:24:18;;;;;;;7.88;4.15;;;;;;;;;;4964430;28;20154;-55
2022/12/25 11:26:48;;;;;;;7.80;3.50;;;;;;;;;;4969692;28;20027;-56
2022/12/25 11:29:32;;;;;;;6.50;3.78;;;;;;;;;;4970149;28;20146;-56
2022/12/25 11:31:59;;;;;;;7.95;3.67;;;;;;;;;;4971995;28;20086;-57
2022/12/25 11:34:43;;;;;;;6.47;4.13;;;;;;;;;;4988643;28;20022;-56
2022/12/25 11:37:15;;;;;;;9.93;4.93;;;;;;;;;;4962714;28;20041;-57
2022/12/25 11:39:40;;;;;;;11.60;6.20;;;;;;;;;;4964827;28;20034;-59
2022/12/25 11:42:08;;;;;;;9.80;4.63;;;;;;;;;;4969692;28;20038;-58
2022/12/25 11:44:38;;;;;;;8.18;4.75;;;;;;;;;;4969209;28;20058;-58
2022/12/25 11:47:11;;;;;;;6.60;3.92;;;;;;;;;;4971290;28;20061;-56
2022/12/25 11:49:41;;;;;;;6.88;3.80;;;;;;;;;;4974261;28;20080;-57
2022/12/25 11:52:07;;;;;;;9.23;4.25;;;;;;;;;;4962669;28;20034;-57
2022/12/25 11:54:36;;;;;;;6.40;4.07;;;;;;;;;;4968775;28;21732;-57
2022/12/25 11:57:02;;;;;;;5.88;3.75;;;;;;;;;;4965928;28;20030;-57
2022/12/25 11:59:31;;;;;;;7.25;4.15;;;;;;;;;;4984206;28;20108;-57
2022/12/25 12:02:02;;;;;;;5.47;3.10;;;;;;;;;;4964195;28;20347;-57
2022/12/25 12:04:33;;;;;;;6.35;3.80;;;;;;;;;;4960530;28;20524;-57
2022/12/25 12:07:07;;;;;;;7.60;3.60;;;;;;;;;;4970401;28;20026;-57
2022/12/25 12:09:45;;;;;;;5.03;3.22;;;;;;;;;;4966054;28;20385;-57
2022/12/25 12:12:15;;;;;;;5.10;3.03;;;;;;;;;;4968004;28;20552;-57
2022/12/25 12:14:58;;;;;;;5.28;3.17;;;;;;;;;;4968702;28;20073;-55
2022/12/25 12:17:26;;;;;;;5.37;2.93;;;;;;;;;;4963386;28;20062;-57
2022/12/25 12:19:51;;;;;;;4.30;2.80;;;;;;;;;;4959585;28;20077;-58
2022/12/25 12:22:24;;;;;;;5.00;2.53;;;;;;;;;;4970395;28;20466;-57
2022/12/25 12:24:53;;;;;;;5.60;1.98;;;;;;;;;;4962338;28;20034;-58
2022/12/25 12:27:23;;;;;;;4.50;1.85;;;;;;;;;;4969161;28;20034;-57
2022/12/25 12:29:49;;;;;;;3.97;1.70;;;;;;;;;;4970797;28;20044;-58
2022/12/25 12:32:22;;;;;;;3.08;1.77;;;;;;;;;;4966955;28;20378;-57
2022/12/25 12:34:49;;;;;;;2.63;1.70;;;;;;;;;;4975491;28;20051;-57
2022/12/25 12:37:21;;;;;;;2.43;1.70;;;;;;;;;;4965127;28;20031;-58
2022/12/25 12:39:50;;;;;;;2.60;1.60;;;;;;;;;;4968019;28;20031;-57
2022/12/25 12:42:39;;;;;;;4.15;1.90;;;;;;;;;;4963663;28;20031;-58
2022/12/25 12:45:09;;;;;;;3.33;1.63;;;;;;;;;;4981680;28;20558;-57
2022/12/25 12:47:40;;;;;;;3.33;1.92;;;;;;;;;;4967072;28;20537;-57
2022/12/25 12:50:06;;;;;;;2.80;1.83;;;;;;;;;;4961743;28;20537;-57
2022/12/25 12:52:36;;;;;;;2.70;1.52;;;;;;;;;;4966327;28;20035;-57
2022/12/25 12:55:04;;;;;;;3.58;1.98;;;;;;;;;;4975434;28;20049;-61
2022/12/25 12:57:33;;;;;;;3.95;1.75;;;;;;;;;;4958628;28;20083;-56
2022/12/25 13:00:00;;;;;;;3.33;1.77;;;;;;;;;;4970413;28;20048;-56
2022/12/25 13:02:47;;;;;;;3.17;1.80;;;;;;;;;;4966346;28;20035;-57
2022/12/25 13:05:31;;;;;;;3.80;1.92;;;;;;;;;;4960355;28;20038;-59
2022/12/25 13:08:15;;;;;;;3.80;1.90;;;;;;;;;;4970016;28;20031;-58
2022/12/25 13:10:43;;;;;;;4.07;2.08;;;;;;;;;;4965710;28;20034;-58
2022/12/25 13:13:27;;;;;;;4.50;2.08;;;;;;;;;;4960992;28;20034;-58
2022/12/25 13:15:52;;;;;;;3.25;1.60;;;;;;;;;;4965658;28;20073;-57
2022/12/25 13:18:18;;;;;;;3.27;1.80;;;;;;;;;;4963619;28;20026;-57
2022/12/25 13:20:50;;;;;;;4.57;1.60;;;;;;;;;;4962875;28;20030;-59
2022/12/25 13:23:26;;;;;;;3.00;1.67;;;;;;;;;;4966270;28;20074;-57
2022/12/25 13:25:52;;;;;;;;;;;;;;;;;;4962455;28;20077;-57
2022/12/25 13:28:22;;;;;;;2.43;1.60;;;;;;;;;;4962793;28;19915;-58
2022/12/25 13:30:48;;;;;;;5.10;2.05;;;;;;;;;;4966436;28;20026;-57
2022/12/25 13:33:15;;;;;;;3.87;1.90;;;;;;;;;;4959509;28;20034;-57
2022/12/25 13:35:44;;;;;;;3.08;1.80;;;;;;;;;;4967639;28;20039;-57
2022/12/25 13:38:16;;;;;;;3.30;1.95;;;;;;;;;;4965033;28;20080;-57
2022/12/25 13:42:04;;;;;;;16.83;1.98;;;;;;;;;;4965555;28;20442;-57
2022/12/25 13:43:33;;;;;;;2.47;1.67;;;;;;;;;;4971557;28;20049;-57
2022/12/25 13:45:59;;;;;;;2.43;1.70;;;;;;;;;;4966778;28;20018;-57
2022/12/25 13:48:24;;;;;;;4.67;2.10;;;;;;;;;;4973882;28;20042;-57
2022/12/25 13:51:00;;;;;;;6.87;2.00;;;;;;;;;;4968322;28;20031;-57
2022/12/25 13:53:25;;;;;;;3.35;1.92;;;;;;;;;;4971570;28;20193;-57
2022/12/25 13:55:53;;;;;;;3.80;1.80;;;;;;;;;;4971348;28;20950;-58
2022/12/25 13:58:33;;;;;;;2.67;1.80;;;;;;;;;;4966960;28;20038;-60
2022/12/25 14:01:00;;;;;;;2.47;1.60;;;;;;;;;;4968447;28;20034;-57
2022/12/25 14:03:31;;;;;;;2.63;1.60;;;;;;;;;;4973385;28;20045;-57
2022/12/25 14:05:58;;;;;;;3.42;1.83;;;;;;;;;;4965890;28;20085;-55
2022/12/25 14:08:25;;;;;;;4.47;2.00;;;;;;;;;;4972464;28;20022;-56
2022/12/25 14:10:51;;;;;;;5.97;2.05;;;;;;;;;;4964879;28;20037;-55
2022/12/25 14:13:18;;;;;;;4.40;2.20;;;;;;;;;;4969547;28;20026;-57
2022/12/25 14:15:45;;;;;;;2.88;1.88;;;;;;;;;;4970711;28;20101;-57
2022/12/25 14:18:13;;;;;;;3.97;2.03;;;;;;;;;;4968012;28;20124;-58
2022/12/25 14:20:40;;;;;;;4.80;2.10;;;;;;;;;;4973406;28;20026;-57
2022/12/25 14:23:06;;;;;;;3.60;1.92;;;;;;;;;;4967750;28;20038;-57
2022/12/25 14:25:50;;;;;;;4.45;2.10;;;;;;;;;;4981021;28;20034;-57
2022/12/25 14:28:20;;;;;;;4.40;2.15;;;;;;;;;;4967290;28;20060;-54
2022/12/25 14:30:46;;;;;;;3.15;2.03;;;;;;;;;;4965850;28;20033;-57
2022/12/25 14:33:13;;;;;;;2.97;2.03;;;;;;;;;;4964452;28;20026;-58
2022/12/25 14:35:38;;;;;;;3.78;1.90;;;;;;;;;;4969543;28;20026;-57
2022/12/25 14:38:04;;;;;;;4.03;2.55;;;;;;;;;;4965278;28;20414;-56
2022/12/25 14:40:31;;;;;;;4.65;2.47;;;;;;;;;;4966496;28;20057;-56
2022/12/25 14:43:00;;;;;;;3.73;2.23;;;;;;;;;;4966850;28;20121;-57
2022/12/25 14:45:26;;;;;;;5.47;2.45;;;;;;;;;;4966069;28;20089;-57
2022/12/25 14:48:11;;;;;;;3.70;2.17;;;;;;;;;;4968332;28;20051;-58
2022/12/25 14:50:41;;;;;;;5.18;2.70;;;;;;;;;;4964633;28;20042;-57
2022/12/25 14:53:16;;;;;;;3.20;2.30;;;;;;;;;;4965582;28;20038;-58
2022/12/25 14:55:45;;;;;;;5.68;2.72;;;;;;;;;;4969427;28;20089;-57
2022/12/25 14:58:15;;;;;;;6.78;3.17;;;;;;;;;;4965952;28;20892;-57
2022/12/25 15:00:41;;;;;;;9.90;3.97;;;;;;;;;;4971677;28;20065;-57
2022/12/25 15:03:22;;;;;;;6.53;3.72;;;;;;;;;;4966139;28;20057;-57
2022/12/25 15:05:56;;;;;;;10.63;4.05;;;;;;;;;;4964727;28;20031;-57
2022/12/25 15:08:22;;;;;;;9.30;4.85;;;;;;;;;;4956608;28;20641;-58
2022/12/25 15:10:48;;;;;;;10.00;5.35;;;;;;;;;;4964651;28;20042;-58
2022/12/25 15:13:16;;;;;;;6.72;4.30;;;;;;;;;;4969273;28;20035;-58
2022/12/25 15:15:46;;;;;;;5.72;3.55;;;;;;;;;;4967830;28;20133;-58
2022/12/25 15:18:11;;;;;;;6.38;3.90;;;;;;;;;;4965636;28;20061;-58
2022/12/25 15:20:36;;;;;;;6.78;3.70;;;;;;;;;;4965093;28;20402;-58
2022/12/25 15:23:02;;;;;;;7.50;4.00;;;;;;;;;;4965373;28;20093;-57
2022/12/25 15:25:28;;;;;;;7.85;4.15;;;;;;;;;;4968853;28;20062;-57
2022/12/25 15:27:53;;;;;;;10.70;4.22;;;;;;;;;;4962808;28;20031;-58
2022/12/25 15:30:19;;;;;;;9.75;4.60;;;;;;;;;;4965818;28;20036;-59
2022/12/25 15:32:47;;;;;;;9.85;4.53;;;;;;;;;;4966927;28;20783;-57
2022/12/25 15:35:17;;;;;;;6.47;3.85;;;;;;;;;;4961560;28;20022;-56
2022/12/25 15:37:43;;;;;;;7.63;4.68;;;;;;;;;;4968670;28;20034;-57
2022/12/25 15:40:10;;;;;;;7.15;4.63;;;;;;;;;;4948382;28;20042;-57
2022/12/25 15:42:35;;;;;;;8.63;4.50;;;;;;;;;;4960939;28;20048;-57
2022/12/25 15:45:00;;;;;;;7.72;4.72;;;;;;;;;;4970091;28;20030;-57
2022/12/25 15:47:26;;;;;;;8.18;5.20;;;;;;;;;;4962785;28;20034;-57
2022/12/25 15:49:51;;;;;;;7.43;5.30;;;;;;;;;;4970684;28;20574;-57
2022/12/25 15:52:17;;;;;;;9.43;5.03;;;;;;;;;;4964248;28;20113;-57
2022/12/25 15:54:42;;;;;;;9.88;5.38;;;;;;;;;;4966890;28;20035;-57
2022/12/25 15:57:19;;;;;;;11.85;8.07;;;;;;;;;;4966265;28;20154;-57
2022/12/25 15:59:44;;;;;;;10.38;6.65;;;;;;;;;;4965325;28;20039;-57
2022/12/25 16:02:13;;;;;;;11.35;6.57;;;;;;;;;;4966712;28;20038;-59
2022/12/25 16:04:41;;;;;;;11.88;6.53;;;;;;;;;;4966450;28;20030;-57
2022/12/25 16:07:12;;;;;;;11.88;7.03;;;;;;;;;;4963224;28;20541;-58
2022/12/25 16:09:38;;;;;;;14.93;7.75;;;;;;;;;;4954541;28;20081;-58
2022/12/25 16:12:03;;;;;;;15.43;8.75;;;;;;;;;;4965987;28;20038;-58
2022/12/25 16:14:29;;;;;;;14.40;8.43;;;;;;;;;;4969341;28;20026;-58
2022/12/25 16:16:54;;;;;;;12.85;7.95;;;;;;;;;;4972357;28;20042;-58
2022/12/25 16:19:19;;;;;;;16.38;8.27;;;;;;;;;;4966906;28;20057;-58
2022/12/25 16:21:45;;;;;;;14.63;8.38;;;;;;;;;;4969393;28;20036;-57
2022/12/25 16:24:11;;;;;;;18.65;9.15;;;;;;;;;;4966729;28;20039;-57